createdAt,value
2023-05-07T00:00:23.173Z,12.55
2023-05-07T00:02:51.811Z,13.13
2023-05-07T00:05:20.485Z,13.15
2023-05-07T00:07:49.682Z,13.25
2023-05-07T00:10:19.511Z,13.68
2023-05-07T00:12:48.028Z,12.85
2023-05-07T00:15:16.458Z,14.40
2023-05-07T00:17:44.998Z,13.38
2023-05-07T00:20:13.923Z,13.15
2023-05-07T00:22:42.439Z,13.23
2023-05-07T00:25:11.308Z,13.77
2023-05-07T00:27:41.190Z,12.65
2023-05-07T00:30:10.906Z,12.70
2023-05-07T00:32:39.564Z,13.23
2023-05-07T00:35:08.952Z,12.80
2023-05-07T00:37:37.506Z,12.87
2023-05-07T00:40:08.378Z,12.70
2023-05-07T00:42:36.863Z,12.97
2023-05-07T00:45:07.544Z,12.50
2023-05-07T00:47:36.096Z,12.27
2023-05-07T00:50:04.537Z,12.80
2023-05-07T00:52:32.991Z,12.20
2023-05-07T00:55:02.835Z,12.35
2023-05-07T00:57:31.330Z,12.23
2023-05-07T00:59:59.721Z,13.37
2023-05-07T01:02:29.615Z,13.63
2023-05-07T01:04:58.162Z,13.37
2023-05-07T01:07:26.956Z,12.57
2023-05-07T01:09:55.801Z,13.23
2023-05-07T01:12:24.542Z,12.80
2023-05-07T01:14:52.971Z,12.53
2023-05-07T01:17:21.799Z,12.43
2023-05-07T01:19:51.883Z,12.77
2023-05-07T01:22:23.780Z,12.70
2023-05-07T01:24:55.107Z,13.55
2023-05-07T01:27:23.502Z,13.90
2023-05-07T01:29:51.948Z,14.53
2023-05-07T01:32:21.734Z,14.80
2023-05-07T01:34:52.267Z,13.82
2023-05-07T01:37:20.748Z,15.67
2023-05-07T01:39:49.696Z,14.83
2023-05-07T01:42:19.519Z,15.13
2023-05-07T01:44:48.113Z,14.70
2023-05-07T01:47:16.738Z,13.97
2023-05-07T01:49:45.547Z,14.80
2023-05-07T01:52:14.215Z,14.18
2023-05-07T01:54:42.647Z,13.80
2023-05-07T01:57:11.117Z,14.13
2023-05-07T01:59:40.991Z,15.95
2023-05-07T02:02:09.590Z,15.90
2023-05-07T02:04:38.083Z,15.27
2023-05-07T02:07:06.513Z,15.47
2023-05-07T02:09:34.933Z,15.97
2023-05-07T02:12:03.362Z,16.00
2023-05-07T02:14:31.813Z,15.10
2023-05-07T02:17:01.611Z,15.32
2023-05-07T02:19:30.037Z,16.73
2023-05-07T02:21:58.470Z,17.58
2023-05-07T02:24:26.860Z,18.53
2023-05-07T02:26:55.275Z,17.80
2023-05-07T02:29:23.718Z,17.70
2023-05-07T02:31:54.070Z,16.90
2023-05-07T02:34:24.155Z,17.20
2023-05-07T02:36:52.549Z,17.43
2023-05-07T02:39:20.957Z,16.60
2023-05-07T02:41:49.413Z,18.30
2023-05-07T02:44:17.824Z,17.57
2023-05-07T02:46:46.234Z,18.90
2023-05-07T02:49:14.667Z,20.10
2023-05-07T02:51:44.435Z,19.70
2023-05-07T02:54:12.839Z,20.07
2023-05-07T02:56:41.260Z,19.70
2023-05-07T02:59:09.652Z,20.20
2023-05-07T03:01:38.117Z,20.38
2023-05-07T03:04:06.864Z,21.13
2023-05-07T03:06:35.369Z,21.03
2023-05-07T03:09:05.595Z,20.33
2023-05-07T03:11:34.066Z,19.00
2023-05-07T03:14:02.495Z,19.20
2023-05-07T03:16:31.135Z,16.63
2023-05-07T03:18:59.706Z,16.63
2023-05-07T03:21:28.727Z,16.50
2023-05-07T03:23:57.175Z,17.27
2023-05-07T03:26:27.128Z,19.63
2023-05-07T03:28:56.414Z,18.70
2023-05-07T03:31:24.972Z,21.37
2023-05-07T03:33:54.067Z,20.67
2023-05-07T03:36:22.789Z,20.57
2023-05-07T03:38:51.205Z,22.10
2023-05-07T03:41:19.627Z,21.53
2023-05-07T03:43:49.381Z,21.77
2023-05-07T03:46:17.822Z,20.97
2023-05-07T03:48:46.257Z,20.57
2023-05-07T03:51:14.671Z,21.93
2023-05-07T03:53:43.092Z,22.50
2023-05-07T03:56:11.572Z,21.73
2023-05-07T03:58:39.999Z,21.60
2023-05-07T04:01:09.816Z,21.50
2023-05-07T04:03:38.394Z,21.90
2023-05-07T04:06:06.961Z,20.87
2023-05-07T04:08:35.368Z,19.87
2023-05-07T04:11:03.832Z,21.07
2023-05-07T04:13:32.600Z,20.07
2023-05-07T04:16:01.058Z,18.47
2023-05-07T04:18:30.930Z,19.17
2023-05-07T04:20:59.380Z,19.13
2023-05-07T04:23:27.891Z,18.77
2023-05-07T04:25:57.059Z,17.73
2023-05-07T04:28:25.497Z,18.33
2023-05-07T04:30:53.991Z,18.00
2023-05-07T04:33:22.483Z,17.57
2023-05-07T04:35:52.356Z,17.50
2023-05-07T04:38:20.772Z,17.83
2023-05-07T04:40:49.217Z,17.10
2023-05-07T04:43:17.837Z,16.47
2023-05-07T04:45:46.310Z,17.00
2023-05-07T04:48:15.698Z,16.50
2023-05-07T04:50:44.254Z,15.47
2023-05-07T04:53:14.056Z,15.93
2023-05-07T04:55:42.473Z,14.47
2023-05-07T04:58:10.978Z,15.27
2023-05-07T05:00:39.822Z,14.87
2023-05-07T05:03:09.160Z,15.00
2023-05-07T05:05:37.620Z,15.33
2023-05-07T05:08:06.249Z,14.63
2023-05-07T05:10:36.073Z,14.50
2023-05-07T05:13:04.581Z,14.90
2023-05-07T05:15:34.061Z,14.40
2023-05-07T05:18:02.735Z,14.43
2023-05-07T05:20:31.243Z,14.73
2023-05-07T05:22:59.646Z,15.90
2023-05-07T05:25:28.642Z,14.13
2023-05-07T05:27:58.665Z,14.77
2023-05-07T05:30:27.216Z,13.87
2023-05-07T05:32:55.991Z,13.33
2023-05-07T05:35:24.416Z,13.03
2023-05-07T05:37:52.813Z,12.27
2023-05-07T05:40:21.526Z,13.20
2023-05-07T05:42:49.922Z,12.30
2023-05-07T05:45:19.811Z,12.40
2023-05-07T05:47:48.398Z,11.20
2023-05-07T05:50:16.823Z,12.50
2023-05-07T05:52:45.216Z,11.60
2023-05-07T05:55:13.679Z,11.37
2023-05-07T05:57:42.154Z,12.57
2023-05-07T06:00:11.547Z,12.10
2023-05-07T06:02:41.705Z,12.83
2023-05-07T06:05:10.654Z,11.87
2023-05-07T06:07:39.193Z,12.73
2023-05-07T06:10:08.326Z,12.97
2023-05-07T06:12:36.806Z,12.87
2023-05-07T06:15:05.420Z,12.63
2023-05-07T06:17:33.962Z,13.37
2023-05-07T06:20:03.812Z,12.70
2023-05-07T06:22:32.255Z,12.40
2023-05-07T06:25:00.744Z,12.23
2023-05-07T06:27:29.602Z,11.98
2023-05-07T06:29:58.064Z,13.40
2023-05-07T06:32:26.618Z,12.32
2023-05-07T06:34:55.086Z,12.95
2023-05-07T06:37:24.876Z,13.48
2023-05-07T06:39:53.300Z,13.55
2023-05-07T06:42:21.691Z,12.77
2023-05-07T06:44:50.095Z,10.82
2023-05-07T06:47:18.560Z,10.43
2023-05-07T06:49:46.997Z,9.98
2023-05-07T06:52:15.400Z,9.88
2023-05-07T06:54:45.369Z,9.75
2023-05-07T06:57:13.782Z,8.38
2023-05-07T06:59:42.195Z,9.85
2023-05-07T07:02:10.629Z,9.05
2023-05-07T07:04:39.795Z,8.88
2023-05-07T07:07:08.376Z,8.70
2023-05-07T07:09:36.785Z,7.57
2023-05-07T07:12:06.788Z,7.53
2023-05-07T07:14:35.229Z,7.22
2023-05-07T07:17:03.678Z,7.07
2023-05-07T07:19:32.084Z,6.95
2023-05-07T07:22:00.535Z,7.38
2023-05-07T07:24:28.975Z,6.38
2023-05-07T07:26:57.889Z,6.55
2023-05-07T07:29:28.116Z,6.40
2023-05-07T07:31:56.874Z,6.60
2023-05-07T07:34:25.501Z,6.90
2023-05-07T07:36:53.890Z,6.72
2023-05-07T07:39:22.331Z,6.57
2023-05-07T07:41:50.761Z,6.82
2023-05-07T07:44:19.168Z,6.63
2023-05-07T07:46:48.989Z,6.22
2023-05-07T07:49:17.470Z,6.63
2023-05-07T07:51:46.493Z,6.65
2023-05-07T07:54:15.044Z,7.13
2023-05-07T07:56:43.426Z,7.95
2023-05-07T07:59:11.818Z,7.18
2023-05-07T08:01:40.273Z,7.13
2023-05-07T08:04:10.166Z,6.80
2023-05-07T08:06:38.703Z,6.05
2023-05-07T08:09:07.257Z,6.95
2023-05-07T08:11:35.732Z,6.35
2023-05-07T08:14:04.165Z,6.78
2023-05-07T08:16:32.657Z,6.63
2023-05-07T08:19:01.262Z,6.25
2023-05-07T08:21:33.786Z,7.05
2023-05-07T08:24:02.953Z,7.03
2023-05-07T08:26:31.352Z,7.53
2023-05-07T08:28:59.783Z,7.43
2023-05-07T08:31:28.265Z,7.35
2023-05-07T08:33:56.789Z,7.28
2023-05-07T08:36:25.364Z,7.10
2023-05-07T08:38:55.924Z,7.28
2023-05-07T08:41:24.396Z,7.47
2023-05-07T08:43:53.475Z,7.35
2023-05-07T08:46:22.790Z,7.18
2023-05-07T08:48:51.427Z,7.20
2023-05-07T08:51:21.030Z,6.78
2023-05-07T08:53:50.929Z,7.28
2023-05-07T08:56:22.451Z,7.63
2023-05-07T08:58:51.321Z,7.93
2023-05-07T09:01:19.905Z,8.20
2023-05-07T09:03:48.997Z,8.15
2023-05-07T09:06:18.569Z,7.93
2023-05-07T09:08:51.700Z,8.18
2023-05-07T09:11:24.771Z,7.35
2023-05-07T09:13:57.080Z,7.78
2023-05-07T09:16:26.379Z,8.30
2023-05-07T09:18:55.711Z,8.18
2023-05-07T09:21:24.830Z,7.95
2023-05-07T09:23:53.679Z,8.32
2023-05-07T09:26:25.608Z,8.13
2023-05-07T09:28:54.515Z,7.80
2023-05-07T09:31:24.855Z,8.13
2023-05-07T09:33:53.492Z,7.57
2023-05-07T09:36:21.927Z,7.78
2023-05-07T09:38:52.424Z,8.10
2023-05-07T09:41:22.200Z,9.00
2023-05-07T09:43:56.258Z,9.48
2023-05-07T09:46:28.157Z,8.20
2023-05-07T09:48:59.832Z,8.25
2023-05-07T09:51:32.353Z,8.38
2023-05-07T09:54:01.964Z,8.43
2023-05-07T09:56:30.552Z,8.35
2023-05-07T09:59:02.167Z,8.18
2023-05-07T10:01:31.256Z,8.43
2023-05-07T10:04:00.356Z,9.30
2023-05-07T10:06:29.309Z,9.07
2023-05-07T10:08:57.895Z,9.00
2023-05-07T10:11:26.367Z,9.05
2023-05-07T10:13:55.201Z,7.63
2023-05-07T10:16:25.271Z,8.43
2023-05-07T10:18:53.925Z,9.20
2023-05-07T10:21:22.863Z,8.65
2023-05-07T10:23:52.205Z,8.48
2023-05-07T10:26:23.527Z,9.27
2023-05-07T10:28:53.706Z,10.85
2023-05-07T10:31:33.921Z,10.60
2023-05-07T10:34:02.763Z,9.85
2023-05-07T10:36:32.033Z,9.05
2023-05-07T10:39:00.616Z,9.60
2023-05-07T10:41:29.092Z,9.43
2023-05-07T10:43:57.553Z,9.02
2023-05-07T10:46:27.428Z,8.95
2023-05-07T10:49:17.351Z,9.15
2023-05-07T10:51:48.070Z,9.30
2023-05-07T10:54:28.462Z,9.25
2023-05-07T10:56:56.926Z,8.82
2023-05-07T10:59:49.548Z,9.65
2023-05-07T11:02:19.347Z,8.40
2023-05-07T11:04:48.040Z,8.13
2023-05-07T11:07:29.525Z,8.88
2023-05-07T11:10:08.667Z,9.73
2023-05-07T11:12:50.062Z,10.20
2023-05-07T11:15:35.955Z,9.00
2023-05-07T11:18:05.988Z,9.38
2023-05-07T11:20:49.924Z,9.43
2023-05-07T11:23:36.748Z,9.38
2023-05-07T11:26:05.899Z,8.75
2023-05-07T11:28:39.146Z,9.20
2023-05-07T11:31:08.270Z,9.55
2023-05-07T11:33:38.631Z,9.85
2023-05-07T11:36:07.849Z,9.10
2023-05-07T11:38:37.973Z,8.85
2023-05-07T11:41:06.509Z,9.70
2023-05-07T11:43:36.809Z,8.68
2023-05-07T11:46:09.452Z,8.43
2023-05-07T11:48:39.413Z,9.60
2023-05-07T11:51:09.779Z,9.52
2023-05-07T11:53:39.285Z,9.05
2023-05-07T11:56:11.081Z,8.98
2023-05-07T11:58:39.937Z,9.25
2023-05-07T12:01:11.100Z,9.38
2023-05-07T12:03:43.763Z,9.32
2023-05-07T12:06:13.445Z,9.38
2023-05-07T12:08:42.768Z,9.98
2023-05-07T12:11:12.767Z,10.15
2023-05-07T12:13:41.180Z,10.20
2023-05-07T12:16:10.100Z,10.18
2023-05-07T12:18:38.822Z,10.65
2023-05-07T12:21:09.498Z,11.25
2023-05-07T12:23:38.772Z,11.57
2023-05-07T12:26:07.894Z,11.65
2023-05-07T12:28:40.673Z,10.88
2023-05-07T12:31:09.541Z,9.90
2023-05-07T12:33:38.679Z,9.88
2023-05-07T12:36:09.783Z,10.93
2023-05-07T12:38:38.910Z,11.85
2023-05-07T12:41:08.206Z,11.55
2023-05-07T12:43:36.673Z,12.63
2023-05-07T12:46:08.394Z,13.25
2023-05-07T12:48:38.969Z,14.25
2023-05-07T12:51:11.261Z,13.43
2023-05-07T12:53:43.299Z,14.88
2023-05-07T12:56:11.852Z,14.00
2023-05-07T12:58:40.293Z,14.93
2023-05-07T13:01:10.969Z,14.93
2023-05-07T13:03:40.801Z,14.90
2023-05-07T13:06:13.265Z,14.30
2023-05-07T13:08:44.165Z,15.88
2023-05-07T13:11:13.362Z,15.75
2023-05-07T13:13:42.362Z,15.35
2023-05-07T13:16:11.461Z,15.13
2023-05-07T13:18:41.338Z,15.32
2023-05-07T13:21:14.259Z,15.27
2023-05-07T13:23:42.848Z,14.38
2023-05-07T13:26:22.502Z,14.13
2023-05-07T13:28:54.942Z,14.65
2023-05-07T13:31:23.577Z,15.05
2023-05-07T13:33:52.023Z,14.68
2023-05-07T13:36:21.874Z,15.40
2023-05-07T13:38:50.683Z,14.27
2023-05-07T13:41:19.111Z,14.82
2023-05-07T13:43:47.576Z,15.13
2023-05-07T13:46:16.037Z,14.95
2023-05-07T13:48:44.706Z,15.18
2023-05-07T13:51:13.461Z,14.68
2023-05-07T13:53:43.250Z,13.85
2023-05-07T13:56:11.874Z,14.10
2023-05-07T13:58:52.104Z,13.95
2023-05-07T14:01:27.876Z,13.57
2023-05-07T14:03:56.502Z,13.23
2023-05-07T14:06:24.983Z,13.40
2023-05-07T14:08:54.761Z,13.10
2023-05-07T14:11:23.354Z,12.98
2023-05-07T14:13:51.785Z,12.70
2023-05-07T14:16:20.254Z,12.18
2023-05-07T14:18:48.916Z,12.68
2023-05-07T14:21:17.350Z,12.85
2023-05-07T14:23:45.791Z,12.75
2023-05-07T14:26:15.690Z,12.57
2023-05-07T14:28:47.334Z,12.80
2023-05-07T14:31:16.365Z,12.15
2023-05-07T14:33:44.804Z,12.52
2023-05-07T14:36:13.391Z,12.23
2023-05-07T14:38:41.868Z,13.85
2023-05-07T14:41:10.375Z,13.63
2023-05-07T14:43:40.214Z,12.82
2023-05-07T14:46:08.692Z,12.60
2023-05-07T14:48:37.130Z,13.10
2023-05-07T14:51:05.784Z,13.00
2023-05-07T14:53:34.276Z,12.90
2023-05-07T14:56:02.767Z,12.85
2023-05-07T14:58:31.190Z,12.73
2023-05-07T15:01:01.618Z,13.30
2023-05-07T15:03:30.583Z,13.55
2023-05-07T15:05:59.139Z,13.32
2023-05-07T15:08:27.605Z,13.07
2023-05-07T15:10:56.381Z,13.40
2023-05-07T15:13:24.879Z,13.73
2023-05-07T15:15:53.596Z,14.18
2023-05-07T15:18:23.458Z,13.50
2023-05-07T15:20:51.957Z,15.25
2023-05-07T15:23:20.508Z,14.38
2023-05-07T15:25:50.435Z,14.60
2023-05-07T15:28:20.953Z,15.20
2023-05-07T15:30:49.372Z,14.38
2023-05-07T15:33:17.868Z,14.63
2023-05-07T15:35:47.668Z,15.27
2023-05-07T15:38:16.777Z,15.23
2023-05-07T15:40:45.783Z,14.68
2023-05-07T15:43:14.362Z,15.02
2023-05-07T15:45:43.692Z,15.05
2023-05-07T15:48:12.571Z,14.63
2023-05-07T15:50:41.318Z,14.95
2023-05-07T15:53:11.135Z,15.00
2023-05-07T15:55:39.568Z,15.05
2023-05-07T15:58:08.016Z,14.50
2023-05-07T16:00:37.301Z,14.13
2023-05-07T16:03:06.092Z,13.90
2023-05-07T16:05:34.666Z,14.15
2023-05-07T16:08:04.172Z,13.82
2023-05-07T16:10:33.988Z,13.82
2023-05-07T16:13:03.058Z,14.68
2023-05-07T16:15:31.540Z,14.65
2023-05-07T16:17:59.977Z,15.25
2023-05-07T16:20:30.397Z,16.35
2023-05-07T16:22:58.983Z,15.25
2023-05-07T16:25:27.540Z,15.13
2023-05-07T16:27:57.383Z,15.10
2023-05-07T16:30:25.838Z,13.77
2023-05-07T16:32:54.361Z,13.43
2023-05-07T16:35:22.864Z,14.48
2023-05-07T16:37:51.310Z,14.40
2023-05-07T16:40:19.770Z,13.00
2023-05-07T16:42:48.167Z,13.50
2023-05-07T16:45:19.262Z,12.43
2023-05-07T16:47:47.755Z,12.65
2023-05-07T16:50:16.207Z,12.93
2023-05-07T16:52:44.655Z,12.07
2023-05-07T16:55:13.347Z,12.40
2023-05-07T16:57:41.973Z,12.18
2023-05-07T17:00:11.745Z,12.45
2023-05-07T17:02:41.624Z,11.65
2023-05-07T17:05:10.973Z,11.43
2023-05-07T17:07:39.781Z,10.80
2023-05-07T17:10:08.644Z,12.15
2023-05-07T17:12:37.793Z,11.45
2023-05-07T17:15:07.074Z,12.52
2023-05-07T17:17:35.636Z,12.23
2023-05-07T17:20:06.266Z,12.70
2023-05-07T17:22:34.701Z,12.77
2023-05-07T17:25:04.353Z,12.73
2023-05-07T17:27:34.323Z,13.82
2023-05-07T17:30:03.056Z,14.60
2023-05-07T17:32:32.854Z,14.00
2023-05-07T17:35:01.292Z,13.75
2023-05-07T17:37:31.138Z,14.65
2023-05-07T17:39:59.563Z,14.57
2023-05-07T17:42:27.999Z,15.35
2023-05-07T17:44:56.445Z,15.35
2023-05-07T17:47:24.901Z,16.15
2023-05-07T17:49:53.351Z,16.05
2023-05-07T17:52:21.786Z,15.10
2023-05-07T17:54:51.641Z,15.57
2023-05-07T17:57:20.020Z,13.95
2023-05-07T17:59:48.474Z,13.85
2023-05-07T18:02:16.956Z,14.13
2023-05-07T18:04:45.630Z,13.52
2023-05-07T18:07:14.098Z,13.15
2023-05-07T18:09:42.536Z,12.93
2023-05-07T18:12:12.365Z,12.15
2023-05-07T18:14:41.066Z,11.20
2023-05-07T18:17:09.500Z,11.70
2023-05-07T18:19:37.933Z,10.95
2023-05-07T18:22:06.344Z,10.65
2023-05-07T18:24:34.796Z,10.82
2023-05-07T18:27:03.208Z,10.45
2023-05-07T18:29:33.008Z,10.85
2023-05-07T18:32:01.609Z,10.20
2023-05-07T18:34:30.242Z,10.52
2023-05-07T18:36:58.683Z,10.65
2023-05-07T18:39:27.168Z,9.90
2023-05-07T18:41:56.630Z,9.75
2023-05-07T18:44:25.133Z,9.27
2023-05-07T18:46:54.980Z,9.40
2023-05-07T18:49:23.392Z,9.57
2023-05-07T18:51:53.294Z,9.15
2023-05-07T18:54:21.737Z,9.63
2023-05-07T18:56:50.554Z,9.40
2023-05-07T18:59:19.182Z,9.23
2023-05-07T19:01:47.719Z,9.02
2023-05-07T19:04:18.263Z,9.35
2023-05-07T19:06:46.726Z,9.43
2023-05-07T19:09:15.367Z,8.73
2023-05-07T19:11:43.788Z,8.43
2023-05-07T19:14:12.213Z,8.82
2023-05-07T19:16:40.688Z,8.38
2023-05-07T19:19:09.237Z,8.75
2023-05-07T19:21:39.105Z,8.43
2023-05-07T19:24:07.904Z,8.55
2023-05-07T19:26:36.322Z,8.75
2023-05-07T19:29:16.397Z,8.05
2023-05-07T19:31:45.686Z,7.97
2023-05-07T19:34:14.640Z,8.25
2023-05-07T19:36:44.548Z,8.80
2023-05-07T19:39:12.981Z,8.82
2023-05-07T19:41:42.801Z,8.77
2023-05-07T19:44:11.399Z,8.50
2023-05-07T19:46:44.608Z,8.98
2023-05-07T19:49:13.453Z,8.82
2023-05-07T19:51:41.881Z,8.13
2023-05-07T19:54:11.732Z,9.27
2023-05-07T19:56:41.834Z,8.93
2023-05-07T19:59:10.360Z,9.77
2023-05-07T20:01:40.013Z,9.40
2023-05-07T20:04:08.601Z,9.52
2023-05-07T20:06:37.103Z,9.27
2023-05-07T20:09:06.341Z,9.20
2023-05-07T20:11:36.130Z,10.38
2023-05-07T20:14:05.824Z,9.65
2023-05-07T20:16:34.432Z,9.80
2023-05-07T20:19:02.900Z,10.43
2023-05-07T20:21:31.398Z,9.60
2023-05-07T20:23:59.927Z,9.80
2023-05-07T20:26:28.371Z,9.85
2023-05-07T20:28:58.152Z,10.30
2023-05-07T20:31:26.801Z,10.68
2023-05-07T20:33:55.366Z,10.88
2023-05-07T20:36:25.990Z,11.43
2023-05-07T20:38:54.508Z,11.20
2023-05-07T20:41:25.111Z,11.35
2023-05-07T20:43:53.535Z,12.23
2023-05-07T20:46:25.327Z,11.82
2023-05-07T20:48:53.952Z,11.65
2023-05-07T20:51:22.339Z,11.55
2023-05-07T20:53:50.784Z,12.88
2023-05-07T20:56:19.203Z,12.43
2023-05-07T20:58:47.612Z,12.70
2023-05-07T21:01:16.115Z,14.07
2023-05-07T21:03:45.977Z,13.07
2023-05-07T21:06:14.396Z,13.43
2023-05-07T21:08:42.856Z,14.18
2023-05-07T21:11:12.996Z,13.18
2023-05-07T21:13:41.501Z,14.57
2023-05-07T21:16:10.837Z,14.13
2023-05-07T21:18:39.320Z,14.10
2023-05-07T21:21:10.777Z,15.15
2023-05-07T21:23:39.564Z,15.02
2023-05-07T21:26:07.974Z,15.00
2023-05-07T21:28:36.496Z,15.13
2023-05-07T21:31:05.218Z,14.55
2023-05-07T21:33:33.844Z,14.77
2023-05-07T21:36:02.257Z,14.88
2023-05-07T21:38:32.164Z,14.90
2023-05-07T21:41:00.664Z,14.55
2023-05-07T21:43:29.119Z,15.07
2023-05-07T21:45:58.250Z,15.43
2023-05-07T21:48:27.782Z,13.93
2023-05-07T21:51:01.507Z,14.15
2023-05-07T21:53:29.950Z,13.90
2023-05-07T21:56:02.302Z,14.05
2023-05-07T21:58:31.920Z,14.07
2023-05-07T22:01:00.441Z,13.15
2023-05-07T22:03:29.024Z,13.32
2023-05-07T22:05:57.507Z,13.30
2023-05-07T22:08:26.171Z,12.55
2023-05-07T22:10:54.673Z,12.30
2023-05-07T22:13:24.826Z,12.18
2023-05-07T22:15:57.515Z,12.25
2023-05-07T22:18:27.133Z,11.68
2023-05-07T22:20:55.576Z,11.95
2023-05-07T22:23:24.008Z,11.85
2023-05-07T22:25:52.675Z,11.98
2023-05-07T22:28:21.428Z,11.88
2023-05-07T22:30:52.279Z,12.48
2023-05-07T22:33:20.759Z,11.68
2023-05-07T22:35:49.167Z,12.07
2023-05-07T22:38:17.573Z,11.45
2023-05-07T22:40:45.987Z,11.77
2023-05-07T22:43:14.469Z,11.95
2023-05-07T22:45:42.922Z,11.80
2023-05-07T22:48:12.799Z,11.40
2023-05-07T22:50:41.397Z,12.05
2023-05-07T22:53:10.088Z,11.05
2023-05-07T22:55:38.580Z,10.85
2023-05-07T22:58:07.974Z,12.65
2023-05-07T23:00:36.398Z,13.30
2023-05-07T23:03:05.041Z,13.18
2023-05-07T23:05:34.922Z,13.98
2023-05-07T23:08:03.368Z,14.82
2023-05-07T23:10:34.538Z,14.52
2023-05-07T23:13:03.149Z,13.80
2023-05-07T23:15:33.291Z,14.70
2023-05-07T23:18:01.798Z,15.75
2023-05-07T23:20:30.219Z,17.58
2023-05-07T23:23:00.379Z,19.40
2023-05-07T23:25:29.691Z,22.60
2023-05-07T23:27:58.107Z,22.90
2023-05-07T23:30:26.705Z,25.17
2023-05-07T23:32:55.287Z,26.23
2023-05-07T23:35:24.320Z,27.90
2023-05-07T23:37:52.730Z,30.27
2023-05-07T23:40:22.754Z,32.45
2023-05-07T23:42:51.245Z,31.70
2023-05-07T23:45:19.663Z,32.03
2023-05-07T23:47:48.159Z,31.48
2023-05-07T23:50:16.673Z,31.95
2023-05-07T23:52:45.114Z,32.28
2023-05-07T23:55:13.888Z,32.08
2023-05-07T23:57:43.677Z,32.50
